Time;durP1;ratioP1;P1;durP2;ratioP2;P2;SDS_P1;SDS_P2;PMS_P1;PMS_P2;Temp;Humidity;BMP_temperature;BMP_pressure;BME280_temperature;BME280_humidity;BME280_pressure;Samples;Min_cycle;Max_cycle;Signal;HPM_P1;HPM_P2
2022/08/15 00:02:13;;;;;;;7.33;6.73;;;;;;;23.68;54.78;99117.75;5037035;28;20475;-74
2022/08/15 00:04:40;;;;;;;7.53;6.90;;;;;;;23.65;54.80;99118.16;5037524;28;20539;-73
2022/08/15 00:07:08;;;;;;;7.40;6.80;;;;;;;23.61;54.06;99111.31;5036498;28;20468;-73
2022/08/15 00:09:34;;;;;;;8.13;7.40;;;;;;;23.62;53.63;99123.16;5036728;28;20452;-72
2022/08/15 00:12:01;;;;;;;6.70;6.10;;;;;;;23.69;53.32;99119.47;5042578;28;20834;-72
2022/08/15 00:14:31;;;;;;;8.73;6.57;;;;;;;23.70;52.68;99112.09;5042843;28;20527;-73
2022/08/15 00:16:59;;;;;;;7.20;5.47;;;;;;;23.72;51.89;99112.72;5042867;28;20536;-73
2022/08/15 00:19:30;;;;;;;5.83;5.23;;;;;;;23.84;50.99;99105.78;5046565;28;20490;-72
2022/08/15 00:21:59;;;;;;;5.53;5.10;;;;;;;23.93;50.68;99104.66;5051914;28;20451;-73
2022/08/15 00:24:30;;;;;;;12.23;5.70;;;;;;;24.01;50.34;99100.97;5043418;28;20456;-73
2022/08/15 00:26:58;;;;;;;7.13;6.00;;;;;;;23.94;50.24;99100.88;5040769;28;20464;-73
2022/08/15 00:29:27;;;;;;;5.83;5.33;;;;;;;24.00;49.98;99101.19;5039822;28;20456;-74
2022/08/15 00:31:54;;;;;;;7.97;5.30;;;;;;;23.97;49.96;99098.78;5036773;28;20468;-73
2022/08/15 00:34:22;;;;;;;6.63;4.87;;;;;;;24.01;49.78;99089.97;5036657;28;20460;-73
2022/08/15 00:36:50;;;;;;;5.53;5.03;;;;;;;23.96;50.40;99099.84;5045625;28;20540;-73
2022/08/15 00:39:17;;;;;;;5.00;4.60;;;;;;;23.91;50.70;99098.50;5041286;28;20480;-72
2022/08/15 00:41:46;;;;;;;5.77;5.27;;;;;;;23.91;50.59;99098.50;5018496;28;20444;-72
2022/08/15 00:44:16;;;;;;;5.50;5.10;;;;;;;23.89;50.93;99100.59;5037170;28;20483;-73
2022/08/15 00:46:45;;;;;;;7.30;5.10;;;;;;;23.90;50.47;99099.56;5035118;28;20543;-73
2022/08/15 00:49:13;;;;;;;6.03;5.53;;;;;;;23.92;50.20;99099.34;5039622;28;21173;-72
2022/08/15 00:51:44;;;;;;;7.07;4.80;;;;;;;24.00;50.02;99101.19;5035580;28;20498;-72
2022/08/15 00:54:15;;;;;;;5.63;4.70;;;;;;;24.03;51.10;99103.53;5036309;28;20420;-73
2022/08/15 00:56:46;;;;;;;5.63;5.13;;;;;;;24.01;50.30;99108.38;5032989;28;20882;-72
2022/08/15 00:59:18;;;;;;;6.50;4.83;;;;;;;23.88;50.06;99109.88;5037662;28;20467;-72
2022/08/15 01:01:46;;;;;;;5.17;4.67;;;;;;;23.89;50.22;99113.47;5035222;28;20433;-73
2022/08/15 01:04:15;;;;;;;5.80;4.33;;;;;;;23.81;50.61;99116.28;5035625;28;20876;-73
2022/08/15 01:06:45;;;;;;;7.30;4.77;;;;;;;23.91;50.25;99117.75;5033991;28;20999;-72
2022/08/15 01:09:12;;;;;;;6.23;5.60;;;;;;;23.80;50.81;99109.94;5038422;28;20486;-73
2022/08/15 01:11:45;;;;;;;6.63;5.97;;;;;;;23.68;51.01;99117.75;5033862;28;20455;-73
2022/08/15 01:14:11;;;;;;;5.17;4.77;;;;;;;23.71;51.28;99125.63;5040927;28;20483;-73
2022/08/15 01:16:39;;;;;;;5.77;5.17;;;;;;;23.80;51.08;99128.34;5033298;28;20444;-73
2022/08/15 01:19:12;;;;;;;4.40;3.90;;;;;;;23.69;51.09;99119.47;5040468;28;20479;-73
2022/08/15 01:21:54;;;;;;;4.70;4.30;;;;;;;23.81;50.64;99116.28;5041182;28;20427;-73
2022/08/15 01:24:44;;;;;;;4.50;4.20;;;;;;;23.92;50.41;99116.72;5041450;28;20493;-73
2022/08/15 01:27:11;;;;;;;4.50;4.10;;;;;;;23.96;50.47;99130.94;5030518;28;20456;-72
2022/08/15 01:29:38;;;;;;;5.10;4.60;;;;;;;23.87;51.10;99126.56;5042934;28;20447;-73
2022/08/15 01:32:05;;;;;;;4.83;4.27;;;;;;;23.80;51.36;99136.59;5038045;28;20460;-73
2022/08/15 01:34:32;;;;;;;4.87;4.37;;;;;;;23.80;51.38;99131.94;5033360;28;20457;-73
2022/08/15 01:36:58;;;;;;;5.63;4.27;;;;;;;23.81;51.41;99128.16;5035663;28;20480;-72
2022/08/15 01:39:31;;;;;;;4.43;4.00;;;;;;;23.79;51.92;99133.00;5039485;28;21032;-72
2022/08/15 01:42:06;;;;;;;4.97;4.03;;;;;;;23.83;52.30;99142.56;5046905;28;20547;-73
2022/08/15 01:44:39;;;;;;;5.10;4.23;;;;;;;23.86;53.05;99136.69;5040165;28;20459;-73
2022/08/15 01:47:17;;;;;;;4.53;4.07;;;;;;;24.00;53.57;99136.94;5035860;28;20541;-73
2022/08/15 01:49:53;;;;;;;5.60;4.90;;;;;;;23.89;54.13;99141.81;5016618;28;20878;-73
2022/08/15 01:52:22;;;;;;;6.47;4.67;;;;;;;23.91;55.37;99144.38;5022597;28;20425;-71
2022/08/15 01:54:51;;;;;;;4.90;4.00;;;;;;;23.82;56.53;99146.34;5048594;28;20524;-73
2022/08/15 01:57:20;;;;;;;6.37;4.03;;;;;;;23.78;57.26;99141.41;5038057;28;20454;-72
2022/08/15 01:59:55;;;;;;;5.80;4.10;;;;;;;23.77;57.31;99140.56;5039343;28;20496;-73
2022/08/15 02:02:22;;;;;;;6.23;4.87;;;;;;;23.81;57.57;99147.41;5035494;28;20431;-73
2022/08/15 02:04:49;;;;;;;6.40;4.80;;;;;;;23.81;57.92;99144.66;5042027;28;20483;-73
2022/08/15 02:07:21;;;;;;;6.03;4.43;;;;;;;23.83;58.05;99142.56;5041523;28;20489;-73
2022/08/15 02:09:48;;;;;;;6.23;4.40;;;;;;;23.82;59.09;99149.09;5040980;28;20561;-73
2022/08/15 02:12:16;;;;;;;4.83;4.43;;;;;;;23.72;60.63;99153.97;5048195;28;20465;-73
2022/08/15 02:14:44;;;;;;;5.27;4.77;;;;;;;23.64;62.31;99152.16;5043157;28;20448;-73
2022/08/15 02:17:11;;;;;;;7.20;5.00;;;;;;;23.64;62.92;99159.53;5036670;28;20464;-73
2022/08/15 02:19:41;;;;;;;5.30;4.10;;;;;;;23.66;63.97;99158.31;5036215;28;20571;-74
2022/08/15 02:22:09;;;;;;;6.90;4.57;;;;;;;23.66;64.35;99157.47;5042724;28;20460;-74
2022/08/15 02:24:36;;;;;;;6.10;5.00;;;;;;;23.63;65.31;99155.06;5028943;28;20444;-74
2022/08/15 02:27:04;;;;;;;8.23;4.77;;;;;;;23.66;65.25;99154.72;5043598;28;20487;-73
2022/08/15 02:29:31;;;;;;;6.93;5.33;;;;;;;23.78;65.32;99157.91;5046589;28;20524;-74
2022/08/15 02:32:03;;;;;;;6.53;5.03;;;;;;;23.72;66.32;99154.84;5045858;28;20459;-72
2022/08/15 02:34:34;;;;;;;13.07;5.10;;;;;;;23.70;67.08;99150.56;5037089;28;20515;-72
2022/08/15 02:37:01;;;;;;;8.80;5.00;;;;;;;23.74;67.90;99154.63;5037856;28;20514;-72
2022/08/15 02:39:27;;;;;;;5.70;5.07;;;;;;;23.70;68.89;99156.06;5038187;28;20564;-72
2022/08/15 02:41:54;;;;;;;7.10;4.73;;;;;;;23.67;69.64;99153.66;5035926;28;20439;-72
2022/08/15 02:44:21;;;;;;;6.00;5.30;;;;;;;23.64;70.76;99154.91;5039819;28;20470;-73
2022/08/15 02:46:49;;;;;;;6.50;4.60;;;;;;;23.52;71.31;99148.97;5036205;28;20461;-72
2022/08/15 02:49:18;;;;;;;9.10;5.03;;;;;;;23.57;71.76;99148.44;5033880;28;20798;-73
2022/08/15 02:51:46;;;;;;;6.73;4.63;;;;;;;23.64;72.05;99154.91;5035949;28;20551;-73
2022/08/15 02:54:16;;;;;;;7.23;4.50;;;;;;;23.65;72.75;99158.50;5059914;28;20510;-72
2022/08/15 02:56:42;;;;;;;10.57;4.73;;;;;;;23.57;73.68;99155.81;5067717;28;20428;-72
2022/08/15 02:59:10;;;;;;;6.40;4.83;;;;;;;23.55;73.95;99161.50;5059744;28;20469;-72
2022/08/15 03:01:38;;;;;;;8.03;5.10;;;;;;;23.47;74.84;99167.91;5067988;28;20436;-73
2022/08/15 03:04:09;;;;;;;8.53;5.33;;;;;;;23.46;75.02;99162.59;5079838;28;20460;-72
2022/08/15 03:06:37;;;;;;;6.50;4.90;;;;;;;23.51;75.24;99149.16;5079570;28;20412;-72
2022/08/15 03:09:07;;;;;;;6.07;5.43;;;;;;;23.47;75.73;99158.78;5062197;28;20493;-73
2022/08/15 03:11:37;;;;;;;9.67;4.97;;;;;;;23.45;76.08;99156.25;5044463;28;20475;-73
2022/08/15 03:14:07;;;;;;;7.40;5.07;;;;;;;23.41;76.43;99149.41;5057987;28;20448;-73
2022/08/15 03:16:35;;;;;;;9.00;5.00;;;;;;;23.45;76.71;99149.88;5056597;28;20444;-73
2022/08/15 03:19:02;;;;;;;9.10;5.00;;;;;;;23.38;77.44;99151.66;5055587;28;20473;-73
2022/08/15 03:21:28;;;;;;;7.53;5.60;;;;;;;23.37;77.17;99145.31;5046114;28;20523;-73
2022/08/15 03:23:58;;;;;;;8.97;5.23;;;;;;;23.28;77.88;99144.50;5051581;28;20436;-72
2022/08/15 03:26:26;;;;;;;7.20;5.37;;;;;;;23.37;77.03;99152.69;5037738;28;20516;-73
2022/08/15 03:28:53;;;;;;;8.47;5.17;;;;;;;23.43;76.90;99157.47;5038940;28;20476;-73
2022/08/15 03:31:19;;;;;;;8.17;5.50;;;;;;;23.36;76.91;99160.09;5047972;28;20455;-73
2022/08/15 03:33:46;;;;;;;9.20;5.63;;;;;;;23.43;76.94;99157.47;5035735;28;20990;-73
2022/08/15 03:36:15;;;;;;;8.83;6.00;;;;;;;23.26;77.98;99168.53;5037687;28;20468;-73
2022/08/15 03:38:43;;;;;;;6.90;5.73;;;;;;;23.30;77.22;99169.06;5035767;28;20484;-73
2022/08/15 03:41:12;;;;;;;5.93;5.33;;;;;;;23.41;76.32;99165.88;5041188;28;20472;-73
2022/08/15 03:43:39;;;;;;;6.30;5.30;;;;;;;23.35;77.12;99172.09;5043938;28;20526;-74
2022/08/15 03:46:09;;;;;;;8.07;5.47;;;;;;;23.39;76.66;99167.97;5036267;28;20440;-73
2022/08/15 03:48:39;;;;;;;6.57;5.10;;;;;;;23.40;76.59;99169.66;5042840;28;20988;-73
2022/08/15 03:51:08;;;;;;;6.77;4.90;;;;;;;23.43;76.07;99172.06;5035575;28;20436;-73
2022/08/15 03:53:37;;;;;;;6.80;5.10;;;;;;;23.29;77.37;99176.44;5035895;28;20470;-73
2022/08/15 03:56:06;;;;;;;6.40;5.10;;;;;;;23.33;76.78;99168.69;5036251;28;20444;-73
2022/08/15 03:58:34;;;;;;;8.50;5.00;;;;;;;23.38;76.30;99170.88;5034791;28;20852;-72
2022/08/15 04:01:01;;;;;;;5.80;5.17;;;;;;;23.32;77.10;99183.47;5047456;28;20455;-73
2022/08/15 04:03:30;;;;;;;6.40;5.07;;;;;;;23.37;76.19;99174.69;5041770;28;20467;-74
2022/08/15 04:05:59;;;;;;;9.00;5.70;;;;;;;23.27;77.08;99177.66;5029788;28;20436;-74
2022/08/15 04:08:30;;;;;;;7.93;5.30;;;;;;;23.36;76.25;99176.56;5076460;22;20927;-71
2022/08/15 04:11:00;;;;;;;7.97;5.47;;;;;;;23.22;78.45;99172.72;5075070;28;20455;-71
2022/08/15 04:13:27;;;;;;;7.37;4.80;;;;;;;23.23;76.63;99184.56;5073857;28;20493;-71
2022/08/15 04:16:01;;;;;;;5.57;4.97;;;;;;;23.27;77.31;99177.66;5074053;28;22573;-71
2022/08/15 04:18:29;;;;;;;5.97;4.93;;;;;;;23.21;78.56;99179.22;5072644;28;21030;-71
2022/08/15 04:20:57;;;;;;;7.40;6.50;;;;;;;23.18;79.39;99182.34;5073894;28;20809;-71
2022/08/15 04:23:24;;;;;;;6.00;5.50;;;;;;;23.19;79.26;99185.94;5055516;28;20446;-72
2022/08/15 04:25:51;;;;;;;6.33;5.20;;;;;;;23.15;79.69;99190.06;5059458;28;20455;-72
2022/08/15 04:28:20;;;;;;;7.77;5.63;;;;;;;23.10;80.19;99193.38;5075597;28;20471;-72
2022/08/15 04:30:48;;;;;;;6.73;4.93;;;;;;;23.04;80.80;99191.31;5071550;28;20576;-70
2022/08/15 04:33:18;;;;;;;7.17;5.60;;;;;;;23.07;80.17;99197.34;5084967;28;20439;-66
2022/08/15 04:35:48;;;;;;;5.93;4.90;;;;;;;23.00;80.90;99201.84;5092318;28;20461;-66
2022/08/15 04:38:15;;;;;;;7.00;5.03;;;;;;;22.99;81.23;99199.22;5091079;28;20537;-68
2022/08/15 04:40:43;;;;;;;5.30;4.63;;;;;;;22.92;81.78;99192.75;5090263;28;20577;-68
2022/08/15 04:43:10;;;;;;;6.50;4.73;;;;;;;22.90;82.12;99190.16;5074149;28;20439;-69
2022/08/15 04:45:39;;;;;;;6.90;4.77;;;;;;;22.94;81.74;99196.16;5073118;28;20952;-67
2022/08/15 04:48:06;;;;;;;6.40;4.67;;;;;;;22.86;82.33;99189.69;5072634;28;20475;-68
2022/08/15 04:50:37;;;;;;;6.93;5.20;;;;;;;22.95;82.07;99197.88;5073550;28;20492;-68
2022/08/15 04:53:07;;;;;;;5.57;4.80;;;;;;;22.81;82.89;99196.72;5073242;28;20451;-68
2022/08/15 04:55:35;;;;;;;6.50;4.80;;;;;;;22.84;82.70;99190.91;5082512;28;20472;-68
2022/08/15 04:58:02;;;;;;;9.73;4.93;;;;;;;22.89;82.17;99182.97;5085402;28;20978;-66
2022/08/15 05:00:31;;;;;;;5.30;3.90;;;;;;;23.01;81.29;99192.53;5076656;28;21294;-67
2022/08/15 05:03:04;;;;;;;6.00;3.80;;;;;;;23.00;81.26;99190.84;5068863;28;20454;-69
2022/08/15 05:05:32;;;;;;;4.97;4.47;;;;;;;23.01;80.89;99184.31;5073566;28;20448;-69
2022/08/15 05:08:00;;;;;;;4.70;4.00;;;;;;;22.99;81.00;99186.38;5067850;28;20483;-68
2022/08/15 05:10:27;;;;;;;9.10;4.97;;;;;;;22.97;81.22;99180.19;5073846;28;20465;-68
2022/08/15 05:12:53;;;;;;;6.07;3.90;;;;;;;22.96;81.01;99183.97;5073820;28;20459;-70
2022/08/15 05:15:22;;;;;;;5.97;4.33;;;;;;;23.00;80.92;99181.78;5074753;28;20811;-69
2022/08/15 05:17:49;;;;;;;4.83;3.60;;;;;;;23.02;80.54;99172.31;5071709;28;21009;-69
2022/08/15 05:20:18;;;;;;;8.23;4.20;;;;;;;22.97;80.96;99177.44;5074872;28;20482;-69
2022/08/15 05:22:57;;;;;;;8.90;4.93;;;;;;;23.07;80.25;99177.25;5071814;28;20482;-69
2022/08/15 05:25:24;;;;;;;5.10;4.07;;;;;;;;;;5068519;28;20516;-67
2022/08/15 05:27:52;;;;;;;4.93;4.10;;;;;;;22.99;80.74;99172.66;5055421;28;20463;-69
2022/08/15 05:30:19;;;;;;;4.87;4.07;;;;;;;22.88;81.12;99168.41;5073003;28;20442;-68
2022/08/15 05:32:46;;;;;;;4.27;3.87;;;;;;;22.98;80.49;99161.84;5073211;28;20450;-69
2022/08/15 05:35:12;;;;;;;6.27;4.23;;;;;;;22.99;80.74;99169.91;5074948;28;20443;-69
2022/08/15 05:37:39;;;;;;;4.83;3.60;;;;;;;23.04;80.07;99167.50;5073200;28;20835;-70
2022/08/15 05:40:08;;;;;;;6.27;4.00;;;;;;;23.04;80.34;99183.97;5076220;28;20577;-69
2022/08/15 05:42:42;;;;;;;5.67;4.00;;;;;;;22.93;81.17;99176.09;5076881;28;20446;-69
2022/08/15 05:45:15;;;;;;;6.83;4.13;;;;;;;22.95;81.14;99184.13;5075916;28;20946;-70
2022/08/15 05:47:47;;;;;;;6.60;4.40;;;;;;;23.12;80.20;99182.22;5069435;28;20478;-70
2022/08/15 05:50:20;;;;;;;4.00;3.70;;;;;;;23.09;80.79;99183.44;5075075;28;20434;-69
2022/08/15 05:52:51;;;;;;;10.33;3.70;;;;;;;23.02;81.79;99179.66;5075650;28;20431;-68
2022/08/15 05:55:28;;;;;;;6.30;3.90;;;;;;;23.08;82.17;99179.81;5065112;28;20462;-70
2022/08/15 05:58:22;;;;;;;4.90;3.97;;;;;;;23.13;82.35;99181.16;5074245;28;20469;-69
2022/08/15 06:00:54;;;;;;;6.83;3.97;;;;;;;23.07;82.89;99191.00;5061601;28;20474;-67
2022/08/15 06:03:25;;;;;;;4.47;3.87;;;;;;;23.03;83.89;99190.47;5054090;28;20424;-68
2022/08/15 06:05:55;;;;;;;4.50;4.10;;;;;;;23.03;84.16;99193.22;5054500;28;20458;-69
2022/08/15 06:08:25;;;;;;;5.77;3.37;;;;;;;23.07;84.49;99199.22;5053312;28;21004;-69
2022/08/15 06:10:55;;;;;;;5.43;4.20;;;;;;;22.84;86.13;99196.41;5054128;28;20443;-69
2022/08/15 06:13:28;;;;;;;4.63;3.70;;;;;;;22.89;85.48;99196.69;5066542;28;21001;-70
2022/08/15 06:15:59;;;;;;;9.03;4.40;;;;;;;22.82;86.08;99195.72;5069831;28;20423;-70
2022/08/15 06:18:28;;;;;;;7.83;3.80;;;;;;;22.86;86.18;99200.66;5073281;28;20467;-69
2022/08/15 06:21:02;;;;;;;4.50;3.97;;;;;;;22.95;85.40;99198.75;5070585;28;20474;-68
2022/08/15 06:23:42;;;;;;;4.40;4.00;;;;;;;22.99;84.73;99202.84;5071439;28;20989;-66
2022/08/15 06:26:21;;;;;;;5.53;3.90;;;;;;;22.95;84.51;99206.09;5077018;28;20466;-68
2022/08/15 06:29:10;;;;;;;5.20;4.20;;;;;;;22.95;84.52;99198.75;5068352;28;20482;-69
2022/08/15 06:31:39;;;;;;;4.60;3.80;;;;;;;22.89;85.00;99194.81;5070408;28;20459;-69
2022/08/15 06:34:14;;;;;;;7.20;4.23;;;;;;;22.99;84.72;99194.63;5076014;28;20450;-67
2022/08/15 06:36:47;;;;;;;4.80;4.20;;;;;;;23.13;84.01;99200.38;5074733;28;20462;-68
2022/08/15 06:39:23;;;;;;;5.60;4.30;;;;;;;23.17;83.58;99207.22;5071343;28;20458;-69
2022/08/15 06:41:59;;;;;;;5.83;3.33;;;;;;;23.33;82.68;99207.13;5079345;28;20473;-69
2022/08/15 06:44:27;;;;;;;8.33;4.13;;;;;;;23.28;82.39;99201.34;5091092;28;20411;-67
2022/08/15 06:47:03;;;;;;;6.53;3.97;;;;;;;23.12;83.86;99205.03;5071051;28;20451;-69
2022/08/15 06:49:32;;;;;;;5.37;4.27;;;;;;;23.23;83.20;99212.88;5038976;28;20449;-70
2022/08/15 06:51:59;;;;;;;5.40;4.33;;;;;;;23.52;81.35;99206.69;5064828;28;20437;-71
2022/08/15 06:54:28;;;;;;;6.10;4.20;;;;;;;23.66;79.65;99207.78;5077768;28;20457;-70
2022/08/15 06:57:04;;;;;;;8.90;4.67;;;;;;;23.52;80.32;99203.09;5071204;28;20479;-71
2022/08/15 06:59:39;;;;;;;5.50;3.77;;;;;;;23.69;79.26;99204.66;5059575;28;20560;-70
2022/08/15 07:02:27;;;;;;;4.93;3.90;;;;;;;24.04;76.96;99199.59;5074395;28;20461;-68
2022/08/15 07:05:05;;;;;;;6.13;3.40;;;;;;;23.98;78.07;99205.00;5070004;28;20837;-70
2022/08/15 07:07:40;;;;;;;9.20;3.97;;;;;;;24.08;76.98;99195.44;5076017;28;20895;-69
2022/08/15 07:10:16;;;;;;;6.17;4.60;;;;;;;24.48;74.56;99206.25;5080697;28;20455;-69
2022/08/15 07:12:50;;;;;;;8.30;4.40;;;;;;;24.44;75.33;99208.47;5081955;28;20422;-72
2022/08/15 07:15:26;;;;;;;6.70;4.43;;;;;;;24.42;74.48;99207.84;5091564;28;20470;-69
2022/08/15 07:17:59;;;;;;;6.43;3.90;;;;;;;24.39;75.26;99210.09;5073386;28;20454;-69
2022/08/15 07:20:25;;;;;;;7.60;3.87;;;;;;;24.31;75.21;99214.66;5071230;28;20570;-69
2022/08/15 07:22:52;;;;;;;7.90;4.63;;;;;;;24.05;77.21;99214.19;5072618;28;20604;-69
2022/08/15 07:25:25;;;;;;;6.47;4.70;;;;;;;24.09;77.07;99213.66;5067787;28;20464;-69
2022/08/15 07:27:56;;;;;;;4.70;3.93;;;;;;;24.20;76.38;99220.59;5095883;28;20465;-69
2022/08/15 07:30:44;;;;;;;6.23;4.30;;;;;;;24.20;77.03;99214.25;5097224;28;20434;-71
2022/08/15 07:33:27;;;;;;;6.70;4.90;;;;;;;24.18;77.63;99216.34;5096794;28;20419;-69
2022/08/15 07:36:03;;;;;;;6.83;4.70;;;;;;;24.13;77.24;99211.41;5071047;28;20456;-71
2022/08/15 07:38:32;;;;;;;5.90;4.87;;;;;;;24.15;76.57;99209.31;5080326;28;20459;-71
2022/08/15 07:41:21;;;;;;;6.97;4.50;;;;;;;24.14;77.63;99210.34;5056433;28;20537;-69
2022/08/15 07:43:49;;;;;;;6.07;4.57;;;;;;;24.02;78.71;99217.34;5072295;28;20524;-71
2022/08/15 07:46:20;;;;;;;6.03;4.53;;;;;;;23.98;79.41;99221.50;5076771;28;20441;-70
2022/08/15 07:48:57;;;;;;;5.20;4.10;;;;;;;23.92;79.72;99220.31;5053617;28;20528;-70
2022/08/15 07:51:27;;;;;;;5.40;4.90;;;;;;;23.99;79.56;99223.19;5072565;28;20828;-69
2022/08/15 07:53:58;;;;;;;6.67;4.67;;;;;;;23.96;80.26;99218.91;5080433;28;20538;-69
2022/08/15 07:56:27;;;;;;;4.60;4.17;;;;;;;24.04;79.06;99220.75;5073629;28;20955;-68
2022/08/15 07:58:55;;;;;;;9.60;4.80;;;;;;;24.16;79.56;99229.41;5066241;28;20496;-68
2022/08/15 08:01:28;;;;;;;5.50;4.33;;;;;;;24.18;80.46;99221.84;5090507;28;20474;-69
2022/08/15 08:03:59;;;;;;;6.53;4.50;;;;;;;23.97;82.74;99239.00;5075664;28;20446;-69
2022/08/15 08:06:32;;;;;;;8.13;4.90;;;;;;;23.87;83.86;99240.13;5077610;28;20987;-69
2022/08/15 08:09:12;;;;;;;6.30;4.80;;;;;;;23.93;83.08;99253.13;5086503;28;20481;-69
2022/08/15 08:11:55;;;;;;;7.30;5.10;;;;;;;23.67;85.04;99250.69;5079610;28;20461;-69
2022/08/15 08:14:37;;;;;;;5.57;4.60;;;;;;;23.86;84.68;99241.16;5068894;28;20808;-68
2022/08/15 08:17:14;;;;;;;11.60;4.60;;;;;;;23.70;86.81;99255.84;5068049;28;20456;-70
2022/08/15 08:19:54;;;;;;;8.33;4.57;;;;;;;23.69;87.64;99250.53;5081237;28;20459;-67
2022/08/15 08:22:28;;;;;;;6.80;4.60;;;;;;;23.81;87.05;99254.63;5080937;28;20450;-69
2022/08/15 08:25:01;;;;;;;7.70;4.27;;;;;;;23.88;88.74;99261.09;5060291;28;20484;-69
2022/08/15 08:27:39;;;;;;;4.43;4.03;;;;;;;23.60;94.05;99271.72;5083813;28;20545;-68
2022/08/15 08:30:09;;;;;;;7.10;5.47;;;;;;;23.37;96.90;99268.91;5079023;28;20816;-69
2022/08/15 08:32:49;;;;;;;6.17;4.80;;;;;;;23.32;98.15;99271.38;5071396;28;20877;-67
2022/08/15 08:35:41;;;;;;;6.50;4.60;;;;;;;23.72;93.80;99273.03;5082017;28;20456;-69
2022/08/15 08:38:25;;;;;;;6.30;4.70;;;;;;;24.04;87.77;99278.50;5079700;28;20491;-71
2022/08/15 08:43:56;;;;;;;7.93;4.60;;;;;;;24.22;87.83;99273.53;5071757;28;20461;-67
2022/08/15 08:46:38;;;;;;;5.47;4.77;;;;;;;24.13;85.33;99285.66;5080698;28;20470;-66
2022/08/15 08:49:15;;;;;;;9.33;4.90;;;;;;;24.22;84.35;99286.41;5066926;28;20529;-67
2022/08/15 08:51:48;;;;;;;6.33;4.27;;;;;;;24.10;84.36;99288.75;5067542;28;20453;-68
2022/08/15 08:54:25;;;;;;;6.63;4.83;;;;;;;24.33;82.55;99291.47;5079318;28;20442;-67
2022/08/15 08:56:55;;;;;;;6.00;4.80;;;;;;;25.58;73.89;99288.91;5075851;28;20517;-67
2022/08/15 08:59:26;;;;;;;6.70;4.17;;;;;;;26.47;69.40;99293.25;5076664;28;20489;-69
2022/08/15 09:01:59;;;;;;;5.10;4.60;;;;;;;27.13;64.41;99292.88;5079204;28;20501;-66
2022/08/15 09:04:38;;;;;;;8.40;4.63;;;;;;;26.84;65.62;99291.22;5072949;28;20460;-69
2022/08/15 09:07:07;;;;;;;17.77;5.60;;;;;;;27.70;62.10;99289.97;5095462;28;20434;-69
2022/08/15 09:09:38;;;;;;;7.63;4.33;;;;;;;28.89;56.32;99298.44;5061433;28;20440;-69
2022/08/15 09:14:57;;;;;;;4.60;4.20;;;;;;;28.28;56.68;99305.03;5063687;28;20524;-68
2022/08/15 09:17:26;;;;;;;8.40;4.50;;;;;;;27.07;61.69;99306.66;5066280;28;20546;-67
2022/08/15 09:19:59;;;;;;;5.80;3.87;;;;;;;26.35;65.95;99315.00;5072737;28;20846;-68
2022/08/15 09:22:25;;;;;;;6.80;3.87;;;;;;;25.85;68.37;99304.94;5081385;28;20490;-75
2022/08/15 09:24:53;;;;;;;7.07;4.17;;;;;;;25.59;69.84;99309.06;5071012;28;20456;-74
2022/08/15 09:27:26;;;;;;;4.50;3.87;;;;;;;24.97;73.46;99319.44;5089931;28;21007;-74
2022/08/15 09:29:57;;;;;;;4.90;4.40;;;;;;;24.96;73.90;99303.09;5058048;28;20442;-75
2022/08/15 09:32:40;;;;;;;6.23;4.47;;;;;;;24.62;75.46;99307.22;5056490;28;20424;-75
2022/08/15 09:35:18;;;;;;;5.90;3.90;;;;;;;24.96;73.95;99326.00;5074989;28;20454;-75
2022/08/15 09:38:15;;;;;;;5.30;4.20;;;;;;;24.90;74.26;99320.41;5055711;28;20471;-74
2022/08/15 09:41:20;;;;;;;4.70;4.30;;;;;;;24.96;74.53;99315.00;5056599;28;20483;-75
2022/08/15 09:44:10;;;;;;;4.60;3.90;;;;;;;25.62;70.80;99316.97;5067139;28;21143;-75
2022/08/15 09:47:08;;;;;;;5.03;3.93;;;;;;;26.71;63.04;99318.75;5010785;28;20530;-75
2022/08/15 09:49:51;;;;;;;4.07;3.67;;;;;;;26.45;64.89;99324.88;5013771;28;20453;-77
2022/08/15 09:52:34;;;;;;;4.30;4.00;;;;;;;25.77;68.79;99306.72;5004384;28;20528;-75
2022/08/15 09:55:21;;;;;;;5.10;4.30;;;;;;;25.35;70.94;99313.03;5018928;28;20483;-76
2022/08/15 09:57:51;;;;;;;5.53;3.70;;;;;;;25.06;72.85;99325.72;5013718;28;20493;-73
2022/08/15 10:00:28;;;;;;;6.00;4.10;;;;;;;24.82;72.06;99313.06;5016567;28;20471;-74
2022/08/15 10:03:02;;;;;;;8.77;3.93;;;;;;;24.71;73.66;99317.13;5016832;28;20445;-74
2022/08/15 10:05:45;;;;;;;4.67;4.20;;;;;;;25.15;70.66;99315.47;5017408;28;20443;-76
2022/08/15 10:08:15;;;;;;;6.23;4.27;;;;;;;24.89;70.70;99313.16;5040704;22;20478;-76
2022/08/15 10:10:48;;;;;;;5.60;4.50;;;;;;;24.78;71.64;99306.22;5061041;28;20444;-77
2022/08/15 10:13:45;;;;;;;5.20;4.70;;;;;;;24.86;71.63;99306.13;5057411;28;20936;-75
2022/08/15 10:16:46;;;;;;;5.77;4.57;;;;;;;24.85;71.73;99303.56;5042990;28;20786;-76
2022/08/15 10:19:34;;;;;;;6.73;4.50;;;;;;;25.39;68.00;99297.78;5050342;28;20444;-75
2022/08/15 10:22:03;;;;;;;5.50;4.27;;;;;;;25.61;67.17;99295.09;5046943;28;20467;-76
2022/08/15 10:24:36;;;;;;;8.07;4.63;;;;;;;27.16;59.86;99295.25;5060391;28;20522;-76
2022/08/15 10:27:22;;;;;;;4.33;3.83;;;;;;;28.64;53.44;99302.97;5061502;28;20484;-75
2022/08/15 10:29:53;;;;;;;5.07;3.93;;;;;;;27.82;55.84;99305.78;5042394;28;20456;-74
2022/08/15 10:32:24;;;;;;;7.73;3.93;;;;;;;27.02;58.84;99318.31;5048085;28;20607;-76
2022/08/15 10:34:57;;;;;;;5.50;4.20;;;;;;;26.77;60.43;99321.56;5059934;28;20481;-75
2022/08/15 10:37:28;;;;;;;4.83;4.30;;;;;;;26.10;62.83;99300.78;5057980;28;20412;-74
2022/08/15 10:40:21;;;;;;;6.13;4.90;;;;;;;26.93;59.78;99311.25;5057416;28;20984;-76
2022/08/15 10:43:02;;;;;;;6.40;4.40;;;;;;;27.69;56.14;99304.88;4977245;28;21053;-76
2022/08/15 10:45:41;;;;;;;7.07;4.40;;;;;;;30.29;47.74;99289.59;4977180;28;20506;-75
2022/08/15 10:48:15;;;;;;;5.43;4.90;;;;;;;31.44;44.66;99293.03;4975884;28;20840;-76
2022/08/15 10:50:58;;;;;;;4.43;3.63;;;;;;;33.55;40.00;99309.34;4976303;28;20435;-74
2022/08/15 10:53:42;;;;;;;4.73;4.00;;;;;;;33.72;39.10;99303.06;4975773;28;20917;-75
2022/08/15 10:56:19;;;;;;;4.13;3.50;;;;;;;31.03;44.36;99302.88;4976817;28;20541;-76
2022/08/15 10:58:49;;;;;;;7.73;3.80;;;;;;;30.10;47.10;99296.13;4976364;28;20861;-75
2022/08/15 11:01:21;;;;;;;4.80;4.10;;;;;;;30.51;46.10;99295.63;4976292;28;20501;-76
2022/08/15 11:03:51;;;;;;;4.70;3.97;;;;;;;30.90;44.93;99296.38;4976192;28;20431;-75
2022/08/15 11:06:21;;;;;;;4.40;4.00;;;;;;;31.13;44.00;99294.84;4976652;28;20454;-75
2022/08/15 11:08:50;;;;;;;7.30;3.83;;;;;;;30.07;47.03;99296.56;4991895;28;20487;-72
2022/08/15 11:11:21;;;;;;;5.73;4.30;;;;;;;29.04;49.02;99303.75;4999163;28;20462;-73
2022/08/15 11:13:53;;;;;;;4.27;3.90;;;;;;;28.15;51.27;99301.41;4998457;28;20451;-73
2022/08/15 11:16:29;;;;;;;4.60;4.20;;;;;;;29.44;48.51;99303.69;4999259;28;20408;-74
2022/08/15 11:18:59;;;;;;;4.40;3.83;;;;;;;31.35;44.04;99309.16;5013564;28;20451;-73
2022/08/15 11:21:32;;;;;;;3.90;3.57;;;;;;;32.93;39.71;99314.63;5074832;28;20545;-75
2022/08/15 11:24:05;;;;;;;5.40;4.30;;;;;;;30.94;43.86;99310.66;5040416;28;20428;-76
2022/08/15 11:26:35;;;;;;;5.30;3.83;;;;;;;32.24;41.32;99301.16;5039269;28;20490;-75
2022/08/15 11:29:17;;;;;;;5.90;5.40;;;;;;;32.50;39.86;99324.13;5055182;28;20487;-75
2022/08/15 11:31:51;;;;;;;4.30;3.53;;;;;;;30.64;44.17;99305.78;5055616;28;20439;-76
2022/08/15 11:34:20;;;;;;;4.80;4.00;;;;;;;30.43;44.86;99301.44;5055491;28;20546;-77
2022/08/15 11:36:48;;;;;;;4.90;3.73;;;;;;;28.56;49.25;99304.03;5056044;28;20454;-75
2022/08/15 11:39:18;;;;;;;8.83;4.27;;;;;;;31.72;41.97;99309.16;5055685;28;20459;-74
2022/08/15 11:41:52;;;;;;;3.70;3.40;;;;;;;32.05;40.51;99303.16;5056633;28;20487;-77
2022/08/15 11:44:21;;;;;;;3.53;3.10;;;;;;;33.82;37.28;99304.09;5059374;28;20435;-75
2022/08/15 11:46:48;;;;;;;5.43;3.50;;;;;;;33.29;38.30;99313.53;5060048;28;20511;-75
2022/08/15 11:49:26;;;;;;;3.90;3.60;;;;;;;32.63;39.39;99298.84;5056941;28;20836;-76
2022/08/15 11:51:59;;;;;;;4.07;3.77;;;;;;;32.31;40.46;99301.91;5056078;28;20435;-76
2022/08/15 11:54:26;;;;;;;3.90;3.47;;;;;;;33.02;39.32;99297.28;5030706;28;21008;-75
2022/08/15 11:56:56;;;;;;;5.63;3.87;;;;;;;31.53;42.37;99302.78;5060160;28;20526;-75
2022/08/15 11:59:25;;;;;;;7.63;3.90;;;;;;;31.31;43.07;99303.19;5059496;28;20464;-75
2022/08/15 12:02:29;;;;;;;5.20;3.83;;;;;;;30.42;45.29;99294.19;5055743;28;20568;-75
2022/08/15 12:04:56;;;;;;;6.67;3.80;;;;;;;29.40;48.03;99312.66;5029333;28;20507;-75